Time;durP1;ratioP1;P1;durP2;ratioP2;P2;SDS_P1;SDS_P2;PMS_P1;PMS_P2;Temp;Humidity;BMP_temperature;BMP_pressure;BME280_temperature;BME280_humidity;BME280_pressure;Samples;Min_cycle;Max_cycle;Signal;HPM_P1;HPM_P2
2021/12/18 00:01:06;;;;;;;6.13;1.30;;;;;;;4.79;100.00;102046.91;10541536;28;20253;-64
2021/12/18 00:06:09;;;;;;;7.00;1.50;;;;;;;4.90;100.00;102061.09;10541601;28;20752;-65
2021/12/18 00:11:15;;;;;;;5.37;1.63;;;;;;;4.95;100.00;102070.75;10542080;28;20642;-67
2021/12/18 00:16:19;;;;;;;6.83;2.37;;;;;;;4.99;100.00;102052.03;10539354;28;20526;-66
2021/12/18 00:21:22;;;;;;;10.37;2.87;;;;;;;5.01;100.00;102034.97;10186290;27;10000228;-65
2021/12/18 00:26:27;;;;;;;13.63;3.10;;;;;;;5.00;100.00;102050.34;10537747;28;20216;-66
2021/12/18 00:31:30;;;;;;;11.20;2.80;;;;;;;5.01;100.00;102060.69;10537719;28;20560;-64
2021/12/18 00:36:33;;;;;;;10.37;3.13;;;;;;;5.03;100.00;102071.03;10539189;28;20657;-65
2021/12/18 00:41:49;;;;;;;10.10;3.47;;;;;;;4.99;100.00;102088.03;10544909;28;20245;-67
2021/12/18 00:46:52;;;;;;;7.83;3.00;;;;;;;5.03;100.00;102096.78;10544886;28;20644;-66
2021/12/18 00:51:56;;;;;;;11.00;3.50;;;;;;;4.97;100.00;102107.69;10544884;28;20225;-66
2021/12/18 00:57:00;;;;;;;10.90;3.57;;;;;;;5.00;100.00;102110.41;10544507;28;20207;-66
2021/12/18 01:02:04;;;;;;;13.73;3.47;;;;;;;4.98;100.00;102101.75;10544676;28;20240;-66
2021/12/18 01:07:07;;;;;;;10.53;3.80;;;;;;;4.92;100.00;102106.63;10546551;28;20560;-65
2021/12/18 01:12:12;;;;;;;8.33;3.53;;;;;;;4.90;100.00;102115.97;10546998;28;20223;-65
2021/12/18 01:22:47;;;;;;;9.13;2.53;;;;;;;4.86;100.00;102106.38;10546217;28;20531;-64
2021/12/18 01:27:53;;;;;;;9.53;2.63;;;;;;;4.82;100.00;102095.91;10546307;28;20776;-64
2021/12/18 01:32:56;;;;;;;8.13;2.70;;;;;;;4.79;100.00;102088.06;10546280;28;20227;-64
2021/12/18 01:37:59;;;;;;;8.37;2.63;;;;;;;4.76;100.00;102088.84;10545842;28;20220;-66
2021/12/18 01:54:02;;;;;;;12.57;2.60;;;;;;;4.72;100.00;102108.41;10545338;28;20302;-66
2021/12/18 01:59:07;;;;;;;9.87;2.27;;;;;;;4.71;100.00;102106.63;10544679;28;20237;-62
2021/12/18 02:04:10;;;;;;;5.87;2.10;;;;;;;4.59;100.00;102106.13;10544706;28;20227;-63
2021/12/18 02:09:14;;;;;;;11.37;2.40;;;;;;;4.37;100.00;102129.16;10544718;28;20670;-63
2021/12/18 02:14:35;;;;;;;12.30;2.23;;;;;;;4.30;100.00;102123.69;10544420;28;20218;-64
2021/12/18 02:19:58;;;;;;;16.10;3.03;;;;;;;4.12;100.00;102108.38;10544058;28;20227;-65
2021/12/18 02:25:03;;;;;;;8.23;2.17;;;;;;;4.01;100.00;102107.00;10544398;28;20275;-68
2021/12/18 02:30:10;;;;;;;11.87;2.90;;;;;;;3.94;100.00;102110.13;10544113;28;20216;-66
2021/12/18 02:35:26;;;;;;;10.90;3.60;;;;;;;3.80;100.00;102094.88;10543459;28;20656;-65
2021/12/18 02:45:55;;;;;;;9.10;2.23;;;;;;;3.67;100.00;102100.28;10543159;28;20548;-64
2021/12/18 02:50:59;;;;;;;8.90;3.53;;;;;;;3.65;100.00;102104.47;10542990;28;20802;-68
2021/12/18 02:56:08;;;;;;;9.37;1.97;;;;;;;3.59;100.00;102115.34;10542962;28;20232;-64
2021/12/18 03:01:20;;;;;;;10.40;2.20;;;;;;;3.55;100.00;102123.72;10542087;28;20231;-66
2021/12/18 03:06:30;;;;;;;8.40;2.20;;;;;;;3.53;100.00;102122.78;10542848;28;20219;-67
2021/12/18 03:27:58;;;;;;;8.30;2.60;;;;;;;3.55;100.00;102095.50;10455360;28;20674;-64
2021/12/18 03:33:02;;;;;;;7.93;2.10;;;;;;;3.48;100.00;102096.03;10522899;28;20223;-64
2021/12/18 03:38:06;;;;;;;9.73;2.20;;;;;;;3.39;100.00;102080.19;10541647;28;20215;-66
2021/12/18 03:43:10;;;;;;;9.53;2.10;;;;;;;3.30;100.00;102105.41;10541728;28;20699;-64
2021/12/18 03:48:14;;;;;;;9.23;1.87;;;;;;;3.31;100.00;102122.59;10541675;28;20219;-64
2021/12/18 03:53:17;;;;;;;9.13;2.10;;;;;;;3.44;100.00;102117.19;10541933;28;20231;-64
2021/12/18 03:58:22;;;;;;;7.87;1.93;;;;;;;3.53;100.00;102118.53;10541271;28;20235;-65
2021/12/18 04:03:25;;;;;;;8.90;2.60;;;;;;;3.58;100.00;102113.59;10541447;28;20242;-65
2021/12/18 04:08:29;;;;;;;7.63;2.17;;;;;;;3.66;100.00;102117.38;10541878;28;20242;-68
2021/12/18 04:13:34;;;;;;;8.33;2.17;;;;;;;3.71;100.00;102120.19;10547013;28;20219;-68
2021/12/18 04:18:37;;;;;;;5.83;2.07;;;;;;;3.77;100.00;102107.59;10550005;28;20211;-67
2021/12/18 04:23:41;;;;;;;8.50;2.53;;;;;;;3.76;100.00;102104.19;10548970;28;20238;-67
2021/12/18 04:28:46;;;;;;;8.30;2.60;;;;;;;3.86;100.00;102102.88;10548780;28;20211;-68
2021/12/18 04:33:49;;;;;;;10.03;3.20;;;;;;;3.89;100.00;102095.31;10548843;28;20226;-68
2021/12/18 04:38:53;;;;;;;28.50;13.27;;;;;;;3.94;100.00;102096.38;10548393;28;20552;-66
2021/12/18 04:43:57;;;;;;;9.37;2.73;;;;;;;3.92;100.00;102086.06;10547755;28;20223;-64
2021/12/18 04:49:02;;;;;;;10.83;2.67;;;;;;;3.99;100.00;102077.81;10545339;28;20208;-65
2021/12/18 04:54:07;;;;;;;9.20;2.63;;;;;;;4.04;100.00;102084.03;10544563;28;20219;-64
2021/12/18 04:59:12;;;;;;;25.40;13.43;;;;;;;4.06;100.00;102084.09;10194169;27;9999590;-66
2021/12/18 05:04:15;;;;;;;12.10;3.00;;;;;;;4.07;100.00;102085.84;10586743;28;20224;-67
2021/12/18 05:09:20;;;;;;;11.30;3.63;;;;;;;4.01;100.00;102086.47;10586233;28;20225;-66
2021/12/18 05:14:24;;;;;;;8.47;2.60;;;;;;;3.97;100.00;102079.41;10586878;28;20214;-65
2021/12/18 05:19:27;;;;;;;13.83;5.93;;;;;;;3.89;100.00;102069.63;10585950;28;20210;-65
2021/12/18 05:24:31;;;;;;;10.10;4.03;;;;;;;3.87;100.00;102061.84;10584393;28;20237;-61
2021/12/18 05:29:36;;;;;;;8.80;2.93;;;;;;;3.78;100.00;102064.00;10586195;28;20221;-63
2021/12/18 05:34:40;;;;;;;12.23;3.77;;;;;;;3.92;100.00;102068.06;10585226;27;20222;-66
2021/12/18 05:39:43;;;;;;;11.03;4.17;;;;;;;3.96;100.00;102072.53;10584873;28;20555;-61
2021/12/18 05:44:50;;;;;;;9.27;3.40;;;;;;;3.90;100.00;102077.41;10584827;28;20256;-62
2021/12/18 05:49:54;;;;;;;10.43;3.40;;;;;;;3.79;100.00;102091.47;10584682;28;20225;-62
2021/12/18 05:54:57;;;;;;;10.40;4.37;;;;;;;3.77;100.00;102077.69;10584355;28;20229;-59
2021/12/18 06:00:02;;;;;;;8.90;4.00;;;;;;;3.77;100.00;102079.34;10573998;28;20233;-60
2021/12/18 06:05:07;;;;;;;10.33;3.87;;;;;;;3.77;100.00;102082.81;10541512;28;20310;-62
2021/12/18 06:10:10;;;;;;;8.83;2.93;;;;;;;3.81;100.00;102089.84;10542156;28;20646;-66
2021/12/18 06:15:18;;;;;;;12.10;3.40;;;;;;;3.99;100.00;102080.38;10541687;28;20565;-65
2021/12/18 06:20:21;;;;;;;9.67;3.93;;;;;;;3.95;100.00;102077.63;10540951;28;20624;-65
2021/12/18 06:25:25;;;;;;;8.00;2.73;;;;;;;3.95;100.00;102083.59;10541058;28;20223;-66
2021/12/18 06:30:29;;;;;;;8.47;3.33;;;;;;;4.03;100.00;102076.25;10540334;28;20207;-66
2021/12/18 06:35:33;;;;;;;10.87;2.77;;;;;;;3.99;100.00;102085.50;10540153;28;20271;-73
2021/12/18 06:40:36;;;;;;;9.77;3.80;;;;;;;4.03;100.00;102087.41;10541235;28;20261;-66
2021/12/18 06:45:41;;;;;;;9.53;2.93;;;;;;;3.99;100.00;102072.66;10540659;28;20222;-64
2021/12/18 06:50:44;;;;;;;8.50;3.30;;;;;;;3.87;100.00;102066.09;10540023;28;20215;-66
2021/12/18 06:55:48;;;;;;;13.00;2.80;;;;;;;3.85;100.00;102067.75;10540553;28;20211;-64
2021/12/18 07:00:56;;;;;;;23.73;10.10;;;;;;;3.81;100.00;102064.19;10556652;28;20333;-66
2021/12/18 07:05:59;;;;;;;9.87;2.97;;;;;;;3.93;100.00;102053.56;10581570;28;20321;-68
2021/12/18 07:11:03;;;;;;;7.87;2.23;;;;;;;3.85;100.00;102048.06;10581684;28;20617;-69
2021/12/18 07:16:08;;;;;;;8.70;3.10;;;;;;;3.88;100.00;102043.09;10581704;27;20223;-68
2021/12/18 07:21:12;;;;;;;11.67;3.17;;;;;;;3.89;100.00;102024.28;10581437;28;20663;-65
2021/12/18 07:26:16;;;;;;;10.77;3.83;;;;;;;3.93;100.00;102031.31;10581111;28;20732;-68
2021/12/18 07:31:21;;;;;;;9.07;3.70;;;;;;;3.80;100.00;102038.41;10581181;28;20222;-65
2021/12/18 07:36:24;;;;;;;13.57;3.93;;;;;;;3.79;100.00;102054.63;10581739;28;20246;-65
2021/12/18 07:41:27;;;;;;;14.27;4.33;;;;;;;3.90;100.00;102059.41;10580662;28;20232;-66
2021/12/18 07:46:32;;;;;;;10.10;3.83;;;;;;;4.07;100.00;102062.75;10583088;28;20217;-65
2021/12/18 07:51:36;;;;;;;11.33;4.03;;;;;;;4.06;100.00;102069.56;10589494;28;20226;-66
2021/12/18 07:56:39;;;;;;;11.93;5.70;;;;;;;4.10;100.00;102063.75;10588992;28;20628;-66
2021/12/18 08:01:44;;;;;;;16.27;6.97;;;;;;;3.77;100.00;102084.50;10564395;28;20276;-66
2021/12/18 08:06:47;;;;;;;14.97;6.17;;;;;;;3.91;100.00;102058.63;10546648;28;20211;-65
2021/12/18 08:11:50;;;;;;;14.57;6.83;;;;;;;3.79;100.00;102068.34;10546419;28;20223;-68
2021/12/18 08:16:55;;;;;;;14.10;7.90;;;;;;;3.68;100.00;102067.00;10546362;28;20216;-67
2021/12/18 08:21:58;;;;;;;16.67;7.60;;;;;;;3.86;100.00;102066.94;10545591;28;20222;-66
2021/12/18 08:27:05;;;;;;;14.70;8.63;;;;;;;3.87;100.00;102064.44;10545541;28;20219;-65
2021/12/18 08:32:09;;;;;;;13.07;6.13;;;;;;;3.91;100.00;102050.91;10545880;28;20226;-66
2021/12/18 08:37:13;;;;;;;13.80;7.93;;;;;;;3.80;100.00;102043.53;10545580;28;20239;-64
2021/12/18 08:42:16;;;;;;;27.07;14.13;;;;;;;3.86;100.00;102042.13;10544946;28;20229;-66
2021/12/18 08:47:21;;;;;;;15.77;8.67;;;;;;;3.83;100.00;102038.56;10547566;28;20250;-65
2021/12/18 08:52:24;;;;;;;18.20;8.10;;;;;;;4.02;100.00;102041.97;10547839;28;20237;-68
2021/12/18 08:57:28;;;;;;;17.00;9.20;;;;;;;3.93;100.00;102015.03;10546863;28;20215;-63
2021/12/18 09:02:32;;;;;;;16.20;9.13;;;;;;;3.89;100.00;101997.72;10547119;28;20571;-61
2021/12/18 09:07:36;;;;;;;19.97;9.93;;;;;;;3.84;100.00;101986.38;10547482;28;20215;-65
2021/12/18 09:12:39;;;;;;;21.97;9.80;;;;;;;3.68;100.00;101987.41;10547028;28;20227;-68
2021/12/18 09:17:44;;;;;;;21.67;9.63;;;;;;;3.79;100.00;101991.31;10547244;28;20548;-66
2021/12/18 09:22:47;;;;;;;21.17;10.43;;;;;;;3.88;100.00;101991.72;10546514;28;20231;-64
2021/12/18 09:27:50;;;;;;;26.10;11.80;;;;;;;3.87;100.00;101971.09;10546638;28;20309;-64
2021/12/18 09:32:55;;;;;;;27.37;11.47;;;;;;;3.84;100.00;101964.16;10546709;28;20544;-63
2021/12/18 09:37:59;;;;;;;28.03;12.43;;;;;;;3.68;100.00;101969.44;10546049;28;20588;-66
2021/12/18 09:43:02;;;;;;;28.37;12.17;;;;;;;3.73;100.00;101961.94;10546007;28;20215;-65
2021/12/18 09:48:07;;;;;;;21.43;10.57;;;;;;;3.66;100.00;101953.09;10545916;28;20303;-71
2021/12/18 09:53:11;;;;;;;27.60;13.20;;;;;;;3.49;100.00;101933.50;10546165;28;20529;-67
2021/12/18 09:58:14;;;;;;;26.60;11.37;;;;;;;3.49;100.00;101936.97;10545160;28;20246;-61
2021/12/18 10:03:19;;;;;;;19.87;9.47;;;;;;;3.49;100.00;101942.09;10545061;28;20547;-64
2021/12/18 10:08:22;;;;;;;19.17;9.50;;;;;;;3.35;100.00;101930.34;10545039;28;20733;-66
2021/12/18 10:13:25;;;;;;;16.67;8.33;;;;;;;3.33;100.00;101931.97;10544938;28;20534;-63
2021/12/18 10:18:34;;;;;;;25.57;11.33;;;;;;;3.24;100.00;101910.19;10544506;28;20695;-65
2021/12/18 10:23:48;;;;;;;23.00;11.50;;;;;;;3.28;100.00;101910.38;10543940;28;20223;-63
2021/12/18 10:28:51;;;;;;;25.00;12.03;;;;;;;3.25;100.00;101899.97;10544281;28;20225;-63
2021/12/18 10:34:13;;;;;;;25.60;12.87;;;;;;;3.40;100.00;101887.81;10544362;28;20256;-64
2021/12/18 10:39:20;;;;;;;28.70;13.47;;;;;;;3.20;100.00;101887.75;10543548;28;20548;-68
2021/12/18 10:44:23;;;;;;;30.00;14.80;;;;;;;3.37;100.00;101891.94;10543802;28;20675;-68
2021/12/18 10:49:40;;;;;;;33.90;15.57;;;;;;;3.39;100.00;101870.69;10543751;28;20227;-68
2021/12/18 10:54:43;;;;;;;36.63;16.43;;;;;;;3.45;100.00;101863.22;10543620;28;20223;-66
2021/12/18 10:59:50;;;;;;;32.50;16.10;;;;;;;3.28;100.00;101853.94;10543096;28;20239;-66
2021/12/18 11:05:14;;;;;;;82.87;39.27;;;;;;;3.24;100.00;101854.63;10542943;28;20223;-64
2021/12/18 11:10:39;;;;;;;28.63;13.40;;;;;;;3.24;100.00;101825.53;10542748;28;20225;-68
2021/12/18 11:15:43;;;;;;;28.63;13.77;;;;;;;3.32;100.00;101811.31;10542779;28;20219;-66
2021/12/18 11:20:50;;;;;;;29.13;13.77;;;;;;;3.37;100.00;101818.41;10541397;28;20687;-64
2021/12/18 11:25:55;;;;;;;27.67;14.53;;;;;;;3.40;100.00;101818.53;10542195;28;20223;-66
2021/12/18 11:30:59;;;;;;;26.13;14.50;;;;;;;3.22;100.00;101812.63;10542235;28;20215;-64
2021/12/18 11:36:05;;;;;;;29.47;14.37;;;;;;;3.39;100.00;101795.38;10542025;28;20238;-62
2021/12/18 11:41:14;;;;;;;26.90;15.40;;;;;;;3.39;100.00;101792.81;10542125;28;20219;-66
2021/12/18 11:46:31;;;;;;;33.00;16.83;;;;;;;3.21;100.00;101787.78;10541611;28;20288;-65
2021/12/18 11:51:36;;;;;;;27.97;15.03;;;;;;;3.31;100.00;101819.84;10541898;28;20659;-66
2021/12/18 11:56:47;;;;;;;25.47;13.77;;;;;;;3.22;100.00;101776.72;10542154;28;20669;-65
2021/12/18 12:01:50;;;;;;;28.27;15.03;;;;;;;3.23;100.00;101770.78;10541234;28;20661;-64
2021/12/18 12:07:21;;;;;;;25.10;14.37;;;;;;;3.30;100.00;101777.91;10541357;28;20227;-65
2021/12/18 12:12:47;;;;;;;28.27;14.57;;;;;;;3.19;100.00;101747.50;10541184;28;20571;-66
2021/12/18 12:17:55;;;;;;;25.63;12.90;;;;;;;3.25;100.00;101738.38;10541124;28;20211;-66
2021/12/18 12:23:02;;;;;;;28.10;12.03;;;;;;;3.26;100.00;101719.59;10540784;28;20232;-67
2021/12/18 12:28:07;;;;;;;31.47;13.83;;;;;;;3.21;100.00;101700.56;10541076;28;20219;-66
2021/12/18 12:33:21;;;;;;;20.80;10.77;;;;;;;3.36;100.00;101708.91;10544305;28;20234;-65
2021/12/18 12:38:28;;;;;;;27.90;13.17;;;;;;;3.25;100.00;101704.13;10548455;28;20219;-65
2021/12/18 12:43:40;;;;;;;29.13;14.03;;;;;;;3.38;100.00;101701.28;10548238;28;20313;-64
2021/12/18 12:49:05;;;;;;;22.87;12.00;;;;;;;3.42;100.00;101698.00;10547891;28;20302;-65
2021/12/18 12:54:10;;;;;;;24.30;12.63;;;;;;;3.24;100.00;101690.47;10540552;28;20565;-65
2021/12/18 12:59:23;;;;;;;27.30;13.33;;;;;;;3.28;100.00;101678.59;10547956;28;20235;-64
2021/12/18 13:04:27;;;;;;;26.13;12.30;;;;;;;3.39;100.00;101678.25;10547531;28;20227;-64
2021/12/18 13:09:31;;;;;;;21.20;10.53;;;;;;;3.35;100.00;101681.47;10547436;28;20511;-66
2021/12/18 13:14:39;;;;;;;22.13;11.93;;;;;;;3.31;100.00;101673.63;10547628;28;20220;-66
2021/12/18 13:19:52;;;;;;;23.97;12.67;;;;;;;3.26;100.00;101673.41;10546828;28;20321;-66
2021/12/18 13:25:05;;;;;;;26.13;12.30;;;;;;;3.35;100.00;101676.34;10546711;28;20683;-64
2021/12/18 13:30:14;;;;;;;22.50;12.37;;;;;;;3.23;100.00;101673.31;10546632;28;20211;-66
2021/12/18 13:35:18;;;;;;;21.77;11.50;;;;;;;3.32;100.00;101663.41;10546387;28;20219;-65
2021/12/18 13:40:23;;;;;;;27.13;14.67;;;;;;;3.36;100.00;101662.72;10544775;28;20212;-68
2021/12/18 13:45:27;;;;;;;25.60;12.10;;;;;;;3.29;100.00;101662.41;10541860;28;20227;-68
2021/12/18 13:50:31;;;;;;;32.83;14.50;;;;;;;3.38;100.00;101652.53;10542946;28;20207;-63
2021/12/18 13:55:39;;;;;;;27.97;14.37;;;;;;;3.22;100.00;101647.59;10210026;27;9999910;-65
2021/12/18 14:00:54;;;;;;;41.43;21.73;;;;;;;3.33;100.00;101649.75;10584431;28;20238;-67
2021/12/18 14:05:59;;;;;;;27.40;14.10;;;;;;;3.32;100.00;101629.19;10584066;28;20957;-66
2021/12/18 14:11:07;;;;;;;31.83;15.13;;;;;;;3.32;100.00;101614.66;10583652;28;20171;-66
2021/12/18 14:16:10;;;;;;;28.93;14.33;;;;;;;3.34;100.00;101625.00;10583700;28;20521;-65
2021/12/18 14:21:14;;;;;;;30.23;14.07;;;;;;;3.41;100.00;101620.16;10583438;28;20241;-64
2021/12/18 14:26:24;;;;;;;37.87;18.67;;;;;;;3.45;100.00;101614.31;10572072;28;20223;-68
2021/12/18 14:31:33;;;;;;;41.60;17.70;;;;;;;3.46;100.00;101610.94;10539622;28;20672;-64
2021/12/18 14:36:57;;;;;;;34.63;15.50;;;;;;;3.55;100.00;101597.59;10543553;28;20578;-66
2021/12/18 14:42:06;;;;;;;42.00;17.27;;;;;;;3.61;100.00;101584.97;10543908;28;20272;-67
2021/12/18 14:47:13;;;;;;;55.23;22.07;;;;;;;3.51;100.00;101567.50;10543594;28;20235;-64
2021/12/18 14:52:16;;;;;;;51.07;19.40;;;;;;;3.44;100.00;101570.63;10543415;28;20196;-68
2021/12/18 14:57:24;;;;;;;56.40;20.13;;;;;;;3.62;100.00;101565.31;10541880;28;20517;-65
2021/12/18 15:02:27;;;;;;;50.23;19.87;;;;;;;3.51;100.00;101559.78;10541442;28;20241;-65
2021/12/18 15:07:30;;;;;;;46.60;19.73;;;;;;;3.46;100.00;101559.63;10542756;28;20656;-66
2021/12/18 15:12:35;;;;;;;51.73;19.90;;;;;;;3.66;100.00;101550.09;10542960;28;20211;-65
2021/12/18 15:17:38;;;;;;;55.40;19.83;;;;;;;3.70;100.00;101533.97;10542816;28;20226;-62
2021/12/18 15:22:42;;;;;;;61.20;21.17;;;;;;;3.62;100.00;101506.28;10542787;28;20238;-64
2021/12/18 15:27:46;;;;;;;51.03;19.80;;;;;;;3.65;100.00;101494.44;10542246;28;20319;-65
2021/12/18 15:32:50;;;;;;;56.27;21.80;;;;;;;3.60;100.00;101500.22;10542243;28;20671;-64
2021/12/18 15:37:53;;;;;;;51.00;20.13;;;;;;;3.81;100.00;101506.13;10542154;28;20322;-67
2021/12/18 15:42:58;;;;;;;53.33;20.60;;;;;;;3.79;100.00;101492.38;10542089;28;20230;-67
2021/12/18 15:48:01;;;;;;;53.97;21.63;;;;;;;3.76;100.00;101482.88;10542069;28;20666;-65
2021/12/18 15:53:05;;;;;;;51.63;22.03;;;;;;;3.67;100.00;101469.72;10541272;28;20271;-64
2021/12/18 15:58:10;;;;;;;49.90;19.80;;;;;;;3.83;100.00;101453.16;10541852;28;20552;-64
2021/12/18 16:03:14;;;;;;;46.13;20.87;;;;;;;3.90;100.00;101445.69;10541199;28;20314;-63
2021/12/18 16:08:18;;;;;;;41.73;19.60;;;;;;;3.91;100.00;101444.88;10544941;28;20341;-65
2021/12/18 16:13:23;;;;;;;40.13;19.33;;;;;;;3.96;100.00;101460.44;10549870;28;20295;-66
2021/12/18 16:18:26;;;;;;;41.90;16.60;;;;;;;4.07;100.00;101470.25;10549382;28;20695;-63
2021/12/18 16:23:30;;;;;;;42.13;18.40;;;;;;;4.10;100.00;101456.63;10549073;28;20207;-65
2021/12/18 16:28:34;;;;;;;39.60;16.67;;;;;;;4.11;100.00;101448.97;10548987;28;20237;-66
2021/12/18 16:33:40;;;;;;;42.13;19.00;;;;;;;4.09;100.00;101426.66;10548887;28;20241;-66
2021/12/18 16:38:44;;;;;;;44.53;18.97;;;;;;;4.10;100.00;101438.66;10548714;28;20216;-63
2021/12/18 16:43:50;;;;;;;55.17;24.97;;;;;;;4.14;100.00;101435.38;10548354;28;20530;-67
2021/12/18 16:48:54;;;;;;;41.10;17.60;;;;;;;4.09;100.00;101419.78;10548097;28;20543;-64
2021/12/18 16:53:58;;;;;;;32.80;15.07;;;;;;;4.11;100.00;101399.28;10548051;28;20594;-66
2021/12/18 16:59:03;;;;;;;36.47;16.33;;;;;;;4.25;100.00;101388.66;10547138;28;20239;-64
2021/12/18 17:04:12;;;;;;;38.17;18.87;;;;;;;4.10;100.00;101384.72;10547681;28;20306;-66
2021/12/18 17:09:16;;;;;;;47.53;23.93;;;;;;;4.20;100.00;101382.50;10547494;28;20672;-65
2021/12/18 17:14:21;;;;;;;31.93;15.87;;;;;;;4.27;100.00;101373.28;10546870;28;20609;-65
2021/12/18 17:19:24;;;;;;;35.87;17.03;;;;;;;4.20;100.00;101373.91;10545738;28;20215;-63
2021/12/18 17:24:28;;;;;;;31.87;14.27;;;;;;;4.32;100.00;101364.91;10546712;28;20226;-66
2021/12/18 17:29:32;;;;;;;30.93;16.10;;;;;;;4.38;100.00;101349.66;10546759;28;20298;-63
2021/12/18 17:34:36;;;;;;;32.57;15.50;;;;;;;4.22;100.00;101344.00;10546426;28;20676;-64
2021/12/18 17:39:39;;;;;;;31.37;14.20;;;;;;;4.35;100.00;101347.00;10546372;28;20219;-62
2021/12/18 17:44:44;;;;;;;45.03;22.80;;;;;;;4.35;100.00;101335.84;10545710;28;20239;-64
2021/12/18 17:49:47;;;;;;;30.00;13.57;;;;;;;4.41;100.00;101323.19;10545743;28;20553;-67
2021/12/18 17:54:51;;;;;;;30.40;14.63;;;;;;;4.51;100.00;101320.94;10545701;28;20225;-63
2021/12/18 17:59:57;;;;;;;27.60;13.97;;;;;;;4.43;100.00;101299.28;10544749;28;20237;-68
2021/12/18 18:05:01;;;;;;;25.40;13.30;;;;;;;4.39;100.00;101310.28;10545055;28;20533;-70
2021/12/18 18:10:07;;;;;;;27.20;13.27;;;;;;;4.29;100.00;101292.88;10545054;28;20557;-64
2021/12/18 18:15:12;;;;;;;24.07;11.90;;;;;;;4.37;100.00;101304.22;10544459;28;20302;-67
2021/12/18 18:20:15;;;;;;;28.13;13.50;;;;;;;4.52;100.00;101290.97;10544118;28;20220;-67
2021/12/18 18:25:18;;;;;;;26.47;14.07;;;;;;;4.60;100.00;101295.50;10542671;28;20314;-65
2021/12/18 18:30:24;;;;;;;23.00;11.20;;;;;;;4.57;100.00;101309.97;10543049;28;20211;-64
2021/12/18 18:35:47;;;;;;;24.40;13.33;;;;;;;4.56;100.00;101309.09;10542942;28;20223;-68
2021/12/18 18:40:51;;;;;;;23.53;12.97;;;;;;;4.55;100.00;101301.34;10542795;28;20695;-64
2021/12/18 18:46:07;;;;;;;24.73;12.63;;;;;;;4.67;100.00;101286.25;10542203;28;20270;-64
2021/12/18 18:51:13;;;;;;;25.67;12.23;;;;;;;4.62;100.00;101259.56;10542511;28;20215;-60
2021/12/18 18:56:17;;;;;;;22.60;13.30;;;;;;;4.67;100.00;101264.00;10542572;28;20310;-65
2021/12/18 19:01:21;;;;;;;24.83;12.53;;;;;;;4.49;100.00;101250.63;10542216;28;20239;-65
2021/12/18 19:06:25;;;;;;;27.73;13.77;;;;;;;4.54;100.00;101253.31;10542455;28;20310;-63
2021/12/18 19:11:29;;;;;;;29.83;14.67;;;;;;;4.52;100.00;101250.69;10542774;28;20219;-63
2021/12/18 19:16:37;;;;;;;29.00;13.37;;;;;;;4.60;100.00;101240.66;10542482;28;20309;-63
2021/12/18 19:21:41;;;;;;;28.83;14.93;;;;;;;4.60;100.00;101226.09;10542710;28;20231;-64
2021/12/18 19:26:44;;;;;;;29.13;14.27;;;;;;;4.68;100.00;101223.72;10542344;28;20227;-64
2021/12/18 19:31:49;;;;;;;27.30;13.00;;;;;;;4.76;100.00;101209.41;10542261;28;20241;-62
2021/12/18 19:36:52;;;;;;;32.83;15.97;;;;;;;4.78;100.00;101196.56;10541742;28;20215;-60
2021/12/18 19:41:56;;;;;;;35.10;15.40;;;;;;;4.79;100.00;101190.59;10543558;28;20241;-69
2021/12/18 19:47:01;;;;;;;29.40;14.87;;;;;;;4.80;100.00;101194.91;10198832;27;10000392;-66
2021/12/18 19:52:05;;;;;;;31.20;15.40;;;;;;;4.86;100.00;101185.66;10547211;28;20690;-64
2021/12/18 19:57:08;;;;;;;31.40;15.70;;;;;;;4.81;100.00;101165.78;10547127;28;20318;-66
2021/12/18 20:02:28;;;;;;;28.37;14.17;;;;;;;4.70;100.00;101160.38;10546666;28;20235;-64
2021/12/18 20:07:34;;;;;;;30.47;14.63;;;;;;;4.73;100.00;101148.47;10546940;28;20227;-65
2021/12/18 20:12:38;;;;;;;29.40;13.30;;;;;;;4.92;100.00;101152.38;10546710;28;20352;-64
2021/12/18 20:17:45;;;;;;;29.60;14.87;;;;;;;4.92;100.00;101136.09;10546239;28;20668;-66
2021/12/18 20:22:49;;;;;;;30.07;14.23;;;;;;;5.00;100.00;101126.84;10546496;28;20219;-69
2021/12/18 20:27:53;;;;;;;29.67;13.67;;;;;;;5.04;100.00;101120.97;10545677;28;20615;-66
2021/12/18 20:32:58;;;;;;;25.07;13.23;;;;;;;5.00;100.00;101120.00;10545646;28;20207;-66
2021/12/18 20:38:01;;;;;;;29.07;13.67;;;;;;;4.86;100.00;101113.66;10545546;28;20222;-67
2021/12/18 20:43:05;;;;;;;27.30;14.27;;;;;;;4.95;100.00;101107.88;10545076;28;20294;-68
2021/12/18 20:48:10;;;;;;;27.63;13.97;;;;;;;4.91;100.00;101111.19;10559284;28;20293;-65
2021/12/18 20:53:14;;;;;;;25.23;12.93;;;;;;;4.92;100.00;101106.06;10587035;28;20609;-65
2021/12/18 20:58:20;;;;;;;30.73;15.07;;;;;;;5.04;100.00;101103.78;10586616;28;20219;-65
2021/12/18 21:03:25;;;;;;;26.00;13.27;;;;;;;5.01;100.00;101098.59;10543900;28;20223;-66
2021/12/18 21:08:30;;;;;;;24.13;13.43;;;;;;;4.92;100.00;101087.22;10543990;28;20651;-64
2021/12/18 21:13:34;;;;;;;27.47;13.67;;;;;;;4.94;100.00;101083.84;10543950;28;20212;-64
2021/12/18 21:18:39;;;;;;;26.40;12.90;;;;;;;5.00;100.00;101078.84;10542532;28;20290;-64
2021/12/18 21:23:43;;;;;;;23.53;12.10;;;;;;;4.97;100.00;101076.19;10543683;28;20332;-66
2021/12/18 21:28:50;;;;;;;22.20;11.70;;;;;;;5.06;100.00;101060.97;10543206;28;20223;-66
2021/12/18 21:34:06;;;;;;;24.63;12.10;;;;;;;5.04;100.00;101056.66;10543528;28;20222;-66
2021/12/18 21:39:13;;;;;;;23.27;12.43;;;;;;;5.11;100.00;101048.25;10542333;28;20225;-64
2021/12/18 21:44:19;;;;;;;23.30;12.63;;;;;;;5.08;100.00;101058.44;10543055;28;20568;-66
2021/12/18 21:49:23;;;;;;;23.07;11.00;;;;;;;5.09;100.00;101045.59;10542484;28;20307;-67
2021/12/18 21:54:27;;;;;;;22.00;11.77;;;;;;;4.99;100.00;101037.66;10542350;28;20215;-67
2021/12/18 21:59:30;;;;;;;26.27;12.43;;;;;;;5.03;100.00;101036.88;10542309;28;20259;-69
2021/12/18 22:04:35;;;;;;;20.27;11.40;;;;;;;4.98;100.00;101025.63;10541528;28;20294;-65
2021/12/18 22:09:38;;;;;;;19.40;9.20;;;;;;;5.08;100.00;101007.88;10541169;28;20219;-65
2021/12/18 22:14:42;;;;;;;21.13;11.20;;;;;;;5.03;100.00;100986.31;10541894;28;20229;-65
2021/12/18 22:19:46;;;;;;;21.87;10.80;;;;;;;5.13;100.00;100989.94;10541464;28;20294;-64
2021/12/18 22:24:50;;;;;;;17.53;10.37;;;;;;;5.15;100.00;100972.84;10541507;28;20222;-64
2021/12/18 22:29:53;;;;;;;52.73;27.43;;;;;;;5.09;100.00;100958.13;10541089;28;20544;-64
2021/12/18 22:35:03;;;;;;;15.17;7.63;;;;;;;4.99;100.00;100950.22;10540937;28;20657;-66
2021/12/18 22:40:09;;;;;;;13.40;7.80;;;;;;;5.10;100.00;100941.00;10540889;28;20224;-64
2021/12/18 22:45:13;;;;;;;13.77;7.23;;;;;;;5.04;100.00;100930.63;10540514;28;20246;-67
2021/12/18 22:50:21;;;;;;;13.03;7.17;;;;;;;5.03;100.00;100931.44;10540282;28;20219;-66
2021/12/18 22:55:28;;;;;;;13.30;7.17;;;;;;;4.99;100.00;100930.50;10540515;28;20219;-66
2021/12/18 23:01:15;;;;;;;12.53;6.10;;;;;;;5.14;100.00;100917.97;10539818;28;20231;-67
2021/12/18 23:06:21;;;;;;;13.37;8.13;;;;;;;5.11;100.00;100909.31;10535674;28;20239;-64
2021/12/18 23:11:29;;;;;;;16.80;8.83;;;;;;;5.12;100.00;100880.19;10540045;28;20560;-64
2021/12/18 23:16:56;;;;;;;12.03;6.80;;;;;;;5.06;100.00;100890.31;10538718;28;20672;-68
2021/12/18 23:22:01;;;;;;;12.87;6.77;;;;;;;4.94;100.00;100865.22;10539689;28;20215;-66
2021/12/18 23:27:05;;;;;;;14.23;7.27;;;;;;;4.85;100.00;100869.34;10539195;28;20227;-67
2021/12/18 23:32:09;;;;;;;14.77;7.90;;;;;;;4.97;100.00;100859.31;10539124;28;20212;-64
2021/12/18 23:37:13;;;;;;;12.80;7.63;;;;;;;4.94;100.00;100862.66;10539026;28;20672;-64
2021/12/18 23:42:17;;;;;;;12.97;7.27;;;;;;;4.88;100.00;100859.97;10538860;28;20231;-63